sensor_id;sensor_type;location;lat;lon;timestamp;P1;durP1;ratioP1;P2;durP2;ratioP2
19645;SDS011;9971;52.446;13.452;2023-04-15T00:14:20;10.13;;;9.23;;
19645;SDS011;9971;52.446;13.452;2023-04-15T00:44:23;10.90;;;10.00;;
19645;SDS011;9971;52.446;13.452;2023-04-15T01:14:26;11.80;;;10.80;;
19645;SDS011;9971;52.446;13.452;2023-04-15T01:44:28;13.95;;;12.70;;
19645;SDS011;9971;52.446;13.452;2023-04-15T02:14:31;14.87;;;13.48;;
19645;SDS011;9971;52.446;13.452;2023-04-15T02:44:34;13.68;;;12.28;;
19645;SDS011;9971;52.446;13.452;2023-04-15T03:14:36;13.65;;;12.35;;
19645;SDS011;9971;52.446;13.452;2023-04-15T03:44:39;11.97;;;10.75;;
19645;SDS011;9971;52.446;13.452;2023-04-15T04:14:42;10.13;;;9.30;;
19645;SDS011;9971;52.446;13.452;2023-04-15T04:44:45;7.28;;;6.67;;
19645;SDS011;9971;52.446;13.452;2023-04-15T05:14:47;6.97;;;6.37;;
19645;SDS011;9971;52.446;13.452;2023-04-15T05:44:50;7.08;;;6.35;;
19645;SDS011;9971;52.446;13.452;2023-04-15T06:14:53;5.03;;;4.55;;
19645;SDS011;9971;52.446;13.452;2023-04-15T06:19:56;8.23;;;7.37;;
19645;SDS011;9971;52.446;13.452;2023-04-15T06:49:59;4.37;;;4.03;;
19645;SDS011;9971;52.446;13.452;2023-04-15T06:55:02;8.03;;;6.28;;
19645;SDS011;9971;52.446;13.452;2023-04-15T07:25:05;6.12;;;5.53;;
19645;SDS011;9971;52.446;13.452;2023-04-15T07:55:08;5.58;;;5.08;;
19645;SDS011;9971;52.446;13.452;2023-04-15T08:25:10;6.42;;;5.53;;
19645;SDS011;9971;52.446;13.452;2023-04-15T08:55:13;5.33;;;4.92;;
19645;SDS011;9971;52.446;13.452;2023-04-15T09:00:15;7.80;;;7.00;;
19645;SDS011;9971;52.446;13.452;2023-04-15T09:30:17;5.65;;;5.15;;
19645;SDS011;9971;52.446;13.452;2023-04-15T10:00:20;5.37;;;4.97;;
19645;SDS011;9971;52.446;13.452;2023-04-15T10:05:22;7.85;;;7.25;;
19645;SDS011;9971;52.446;13.452;2023-04-15T10:10:25;8.25;;;7.45;;
19645;SDS011;9971;52.446;13.452;2023-04-15T10:15:27;8.10;;;7.15;;
19645;SDS011;9971;52.446;13.452;2023-04-15T10:20:29;8.13;;;7.42;;
19645;SDS011;9971;52.446;13.452;2023-04-15T10:25:32;8.80;;;8.10;;
19645;SDS011;9971;52.446;13.452;2023-04-15T10:55:36;8.78;;;5.45;;
19645;SDS011;9971;52.446;13.452;2023-04-15T11:00:38;7.78;;;7.08;;
19645;SDS011;9971;52.446;13.452;2023-04-15T11:05:48;6.92;;;6.25;;
19645;SDS011;9971;52.446;13.452;2023-04-15T11:10:52;7.70;;;7.10;;
19645;SDS011;9971;52.446;13.452;2023-04-15T11:15:54;7.67;;;6.70;;
19645;SDS011;9971;52.446;13.452;2023-04-15T11:20:57;8.40;;;7.70;;
19645;SDS011;9971;52.446;13.452;2023-04-15T11:25:58;7.93;;;7.17;;
19645;SDS011;9971;52.446;13.452;2023-04-15T11:31:05;7.60;;;6.92;;
19645;SDS011;9971;52.446;13.452;2023-04-15T11:36:06;7.63;;;7.03;;
19645;SDS011;9971;52.446;13.452;2023-04-15T11:41:09;7.87;;;7.10;;
19645;SDS011;9971;52.446;13.452;2023-04-15T11:46:11;8.08;;;7.20;;
19645;SDS011;9971;52.446;13.452;2023-04-15T11:51:14;8.13;;;7.33;;
19645;SDS011;9971;52.446;13.452;2023-04-15T11:56:17;8.93;;;8.23;;
19645;SDS011;9971;52.446;13.452;2023-04-15T12:31:29;6.67;;;6.17;;
19645;SDS011;9971;52.446;13.452;2023-04-15T12:36:32;7.30;;;6.70;;
19645;SDS011;9971;52.446;13.452;2023-04-15T12:41:34;6.65;;;6.15;;
19645;SDS011;9971;52.446;13.452;2023-04-15T12:46:37;7.22;;;6.62;;
19645;SDS011;9971;52.446;13.452;2023-04-15T12:51:39;7.75;;;7.15;;
19645;SDS011;9971;52.446;13.452;2023-04-15T12:56:42;7.47;;;6.87;;
19645;SDS011;9971;52.446;13.452;2023-04-15T13:01:45;6.30;;;5.87;;
19645;SDS011;9971;52.446;13.452;2023-04-15T13:06:49;6.70;;;5.73;;
19645;SDS011;9971;52.446;13.452;2023-04-15T13:11:51;7.08;;;6.47;;
19645;SDS011;9971;52.446;13.452;2023-04-15T13:16:53;6.12;;;5.62;;
19645;SDS011;9971;52.446;13.452;2023-04-15T13:21:56;6.05;;;5.55;;
19645;SDS011;9971;52.446;13.452;2023-04-15T13:26:59;7.12;;;5.58;;
19645;SDS011;9971;52.446;13.452;2023-04-15T13:32:02;5.60;;;5.10;;
19645;SDS011;9971;52.446;13.452;2023-04-15T13:37:05;5.65;;;5.03;;
19645;SDS011;9971;52.446;13.452;2023-04-15T13:42:07;5.53;;;5.13;;
19645;SDS011;9971;52.446;13.452;2023-04-15T13:47:09;5.20;;;4.80;;
19645;SDS011;9971;52.446;13.452;2023-04-15T13:52:12;4.73;;;4.37;;
19645;SDS011;9971;52.446;13.452;2023-04-15T13:57:14;4.40;;;4.10;;
19645;SDS011;9971;52.446;13.452;2023-04-15T14:02:16;5.30;;;4.90;;
19645;SDS011;9971;52.446;13.452;2023-04-15T14:07:19;5.03;;;4.62;;
19645;SDS011;9971;52.446;13.452;2023-04-15T14:12:22;5.08;;;4.58;;
19645;SDS011;9971;52.446;13.452;2023-04-15T14:17:25;5.30;;;4.90;;
19645;SDS011;9971;52.446;13.452;2023-04-15T14:22:28;4.55;;;4.20;;
19645;SDS011;9971;52.446;13.452;2023-04-15T14:27:30;4.87;;;4.58;;
19645;SDS011;9971;52.446;13.452;2023-04-15T14:32:33;5.05;;;4.65;;
19645;SDS011;9971;52.446;13.452;2023-04-15T14:37:36;5.83;;;5.28;;
19645;SDS011;9971;52.446;13.452;2023-04-15T14:42:39;4.97;;;4.57;;
19645;SDS011;9971;52.446;13.452;2023-04-15T14:47:42;5.50;;;5.10;;
19645;SDS011;9971;52.446;13.452;2023-04-15T14:52:45;5.22;;;4.83;;
19645;SDS011;9971;52.446;13.452;2023-04-15T14:57:49;5.80;;;5.33;;
19645;SDS011;9971;52.446;13.452;2023-04-15T15:02:51;5.20;;;4.87;;
19645;SDS011;9971;52.446;13.452;2023-04-15T15:07:53;5.80;;;5.30;;
19645;SDS011;9971;52.446;13.452;2023-04-15T15:12:56;6.35;;;5.85;;
19645;SDS011;9971;52.446;13.452;2023-04-15T15:17:59;5.72;;;5.22;;
19645;SDS011;9971;52.446;13.452;2023-04-15T15:23:02;6.17;;;5.67;;
19645;SDS011;9971;52.446;13.452;2023-04-15T15:28:04;5.80;;;5.37;;
19645;SDS011;9971;52.446;13.452;2023-04-15T15:33:06;5.30;;;4.90;;
19645;SDS011;9971;52.446;13.452;2023-04-15T15:38:10;5.62;;;5.12;;
19645;SDS011;9971;52.446;13.452;2023-04-15T15:43:11;5.17;;;4.77;;
19645;SDS011;9971;52.446;13.452;2023-04-15T15:48:13;5.12;;;4.72;;
19645;SDS011;9971;52.446;13.452;2023-04-15T15:53:16;5.00;;;4.60;;
19645;SDS011;9971;52.446;13.452;2023-04-15T15:58:18;4.62;;;4.22;;
19645;SDS011;9971;52.446;13.452;2023-04-15T16:03:21;4.03;;;3.72;;
19645;SDS011;9971;52.446;13.452;2023-04-15T16:08:22;4.93;;;4.50;;
19645;SDS011;9971;52.446;13.452;2023-04-15T16:13:25;3.65;;;3.35;;
19645;SDS011;9971;52.446;13.452;2023-04-15T16:18:27;3.90;;;3.58;;
19645;SDS011;9971;52.446;13.452;2023-04-15T16:23:29;3.42;;;3.22;;
19645;SDS011;9971;52.446;13.452;2023-04-15T16:28:32;3.65;;;3.35;;
19645;SDS011;9971;52.446;13.452;2023-04-15T16:33:35;3.60;;;3.40;;
19645;SDS011;9971;52.446;13.452;2023-04-15T16:38:38;3.47;;;3.23;;
19645;SDS011;9971;52.446;13.452;2023-04-15T16:43:40;3.77;;;3.47;;
19645;SDS011;9971;52.446;13.452;2023-04-15T16:48:43;3.67;;;3.37;;
19645;SDS011;9971;52.446;13.452;2023-04-15T16:53:46;4.35;;;3.95;;
19645;SDS011;9971;52.446;13.452;2023-04-15T16:58:48;3.62;;;3.27;;
19645;SDS011;9971;52.446;13.452;2023-04-15T17:03:50;3.67;;;3.37;;
19645;SDS011;9971;52.446;13.452;2023-04-15T17:08:53;3.47;;;3.25;;
19645;SDS011;9971;52.446;13.452;2023-04-15T17:13:56;3.37;;;3.17;;
19645;SDS011;9971;52.446;13.452;2023-04-15T17:18:59;3.97;;;3.67;;
19645;SDS011;9971;52.446;13.452;2023-04-15T17:24:02;3.58;;;3.27;;
19645;SDS011;9971;52.446;13.452;2023-04-15T17:29:04;3.58;;;3.27;;
19645;SDS011;9971;52.446;13.452;2023-04-15T17:34:07;5.22;;;3.92;;
19645;SDS011;9971;52.446;13.452;2023-04-15T17:39:10;3.95;;;3.62;;
19645;SDS011;9971;52.446;13.452;2023-04-15T17:44:12;4.33;;;3.95;;
19645;SDS011;9971;52.446;13.452;2023-04-15T17:49:15;4.17;;;3.77;;
19645;SDS011;9971;52.446;13.452;2023-04-15T17:54:18;4.37;;;4.00;;
19645;SDS011;9971;52.446;13.452;2023-04-15T17:59:21;4.80;;;4.40;;
19645;SDS011;9971;52.446;13.452;2023-04-15T18:04:24;4.73;;;4.33;;
19645;SDS011;9971;52.446;13.452;2023-04-15T18:09:28;5.20;;;4.57;;
19645;SDS011;9971;52.446;13.452;2023-04-15T18:14:30;5.10;;;4.63;;
19645;SDS011;9971;52.446;13.452;2023-04-15T18:19:33;4.92;;;4.58;;
19645;SDS011;9971;52.446;13.452;2023-04-15T18:24:36;4.53;;;4.12;;
19645;SDS011;9971;52.446;13.452;2023-04-15T18:29:38;4.92;;;4.50;;
19645;SDS011;9971;52.446;13.452;2023-04-15T18:34:42;4.45;;;4.15;;
19645;SDS011;9971;52.446;13.452;2023-04-15T18:39:44;4.83;;;4.40;;
19645;SDS011;9971;52.446;13.452;2023-04-15T18:44:47;4.62;;;4.30;;
19645;SDS011;9971;52.446;13.452;2023-04-15T18:49:50;4.72;;;4.25;;
19645;SDS011;9971;52.446;13.452;2023-04-15T18:54:52;4.53;;;4.23;;
19645;SDS011;9971;52.446;13.452;2023-04-15T18:59:54;5.12;;;4.62;;
19645;SDS011;9971;52.446;13.452;2023-04-15T19:04:57;5.25;;;4.75;;
19645;SDS011;9971;52.446;13.452;2023-04-15T19:10:01;5.37;;;4.97;;
19645;SDS011;9971;52.446;13.452;2023-04-15T19:15:03;5.33;;;4.93;;
19645;SDS011;9971;52.446;13.452;2023-04-15T19:20:05;3.45;;;3.25;;
19645;SDS011;9971;52.446;13.452;2023-04-15T19:25:08;3.87;;;3.52;;
19645;SDS011;9971;52.446;13.452;2023-04-15T19:30:11;3.77;;;3.47;;
19645;SDS011;9971;52.446;13.452;2023-04-15T19:35:13;3.25;;;3.05;;
19645;SDS011;9971;52.446;13.452;2023-04-15T19:40:16;3.67;;;3.37;;
19645;SDS011;9971;52.446;13.452;2023-04-15T19:45:18;3.98;;;3.67;;
19645;SDS011;9971;52.446;13.452;2023-04-15T19:50:22;4.15;;;3.85;;
19645;SDS011;9971;52.446;13.452;2023-04-15T19:55:24;5.20;;;4.80;;
19645;SDS011;9971;52.446;13.452;2023-04-15T20:00:27;5.22;;;4.83;;
19645;SDS011;9971;52.446;13.452;2023-04-15T20:05:30;6.47;;;5.97;;
19645;SDS011;9971;52.446;13.452;2023-04-15T20:10:35;6.97;;;6.33;;
19645;SDS011;9971;52.446;13.452;2023-04-15T20:15:37;7.97;;;7.33;;
19645;SDS011;9971;52.446;13.452;2023-04-15T20:20:39;7.25;;;6.62;;
19645;SDS011;9971;52.446;13.452;2023-04-15T20:25:42;8.40;;;7.70;;
19645;SDS011;9971;52.446;13.452;2023-04-15T20:30:45;7.90;;;7.20;;
19645;SDS011;9971;52.446;13.452;2023-04-15T20:35:47;8.33;;;7.62;;
19645;SDS011;9971;52.446;13.452;2023-04-15T20:40:50;7.60;;;7.00;;
19645;SDS011;9971;52.446;13.452;2023-04-15T20:45:53;9.28;;;7.22;;
19645;SDS011;9971;52.446;13.452;2023-04-15T20:50:55;8.70;;;7.90;;
19645;SDS011;9971;52.446;13.452;2023-04-15T20:55:57;8.65;;;7.85;;
19645;SDS011;9971;52.446;13.452;2023-04-15T21:01:00;9.35;;;8.43;;
19645;SDS011;9971;52.446;13.452;2023-04-15T21:31:03;7.92;;;7.25;;
19645;SDS011;9971;52.446;13.452;2023-04-15T21:36:05;8.60;;;7.80;;
19645;SDS011;9971;52.446;13.452;2023-04-15T21:41:08;7.97;;;7.28;;
19645;SDS011;9971;52.446;13.452;2023-04-15T21:46:10;8.48;;;7.65;;
19645;SDS011;9971;52.446;13.452;2023-04-15T21:51:13;8.80;;;8.10;;
19645;SDS011;9971;52.446;13.452;2023-04-15T22:21:16;7.75;;;7.10;;
19645;SDS011;9971;52.446;13.452;2023-04-15T22:26:19;7.75;;;7.05;;
19645;SDS011;9971;52.446;13.452;2023-04-15T22:31:21;8.95;;;8.20;;
19645;SDS011;9971;52.446;13.452;2023-04-15T23:01:24;8.23;;;7.50;;
19645;SDS011;9971;52.446;13.452;2023-04-15T23:06:27;8.53;;;7.75;;
19645;SDS011;9971;52.446;13.452;2023-04-15T23:11:30;8.53;;;7.72;;
19645;SDS011;9971;52.446;13.452;2023-04-15T23:16:33;8.70;;;7.90;;
19645;SDS011;9971;52.446;13.452;2023-04-15T23:21:35;9.10;;;8.40;;
19645;SDS011;9971;52.446;13.452;2023-04-15T23:51:38;9.40;;;8.63;;
